sensor_id;sensor_type;location;lat;lon;timestamp;temperature;humidity
12588;DHT22;6359;51.450;7.346;2023-02-03T00:01:10;8.00;99.90
12588;DHT22;6359;51.450;7.346;2023-02-03T00:03:38;8.10;99.90
12588;DHT22;6359;51.450;7.346;2023-02-03T00:06:05;8.10;99.90
12588;DHT22;6359;51.450;7.346;2023-02-03T00:08:34;8.10;99.90
12588;DHT22;6359;51.450;7.346;2023-02-03T00:11:03;8.10;99.90
12588;DHT22;6359;51.450;7.346;2023-02-03T00:13:30;8.00;99.90
12588;DHT22;6359;51.450;7.346;2023-02-03T00:15:57;8.10;99.90
12588;DHT22;6359;51.450;7.346;2023-02-03T00:18:26;8.00;99.90
12588;DHT22;6359;51.450;7.346;2023-02-03T00:21:11;8.00;99.90
12588;DHT22;6359;51.450;7.346;2023-02-03T00:23:41;8.00;99.90
12588;DHT22;6359;51.450;7.346;2023-02-03T00:26:09;8.10;99.90
12588;DHT22;6359;51.450;7.346;2023-02-03T00:28:37;8.10;99.90
12588;DHT22;6359;51.450;7.346;2023-02-03T00:31:04;8.10;99.90
12588;DHT22;6359;51.450;7.346;2023-02-03T00:33:31;8.10;99.90
12588;DHT22;6359;51.450;7.346;2023-02-03T00:36:02;8.10;99.90
12588;DHT22;6359;51.450;7.346;2023-02-03T00:38:30;8.20;99.90
12588;DHT22;6359;51.450;7.346;2023-02-03T00:40:59;8.10;99.90
12588;DHT22;6359;51.450;7.346;2023-02-03T00:43:26;8.10;99.90
12588;DHT22;6359;51.450;7.346;2023-02-03T00:45:53;8.10;99.90
12588;DHT22;6359;51.450;7.346;2023-02-03T00:48:20;8.10;99.90
12588;DHT22;6359;51.450;7.346;2023-02-03T00:50:47;8.20;99.90
12588;DHT22;6359;51.450;7.346;2023-02-03T00:53:14;8.20;99.90
12588;DHT22;6359;51.450;7.346;2023-02-03T00:55:42;8.20;99.90
12588;DHT22;6359;51.450;7.346;2023-02-03T00:58:11;8.20;99.90
12588;DHT22;6359;51.450;7.346;2023-02-03T01:00:38;8.20;99.90
12588;DHT22;6359;51.450;7.346;2023-02-03T01:03:05;8.20;99.90
12588;DHT22;6359;51.450;7.346;2023-02-03T01:05:32;8.20;99.90
12588;DHT22;6359;51.450;7.346;2023-02-03T01:08:03;8.10;99.90
12588;DHT22;6359;51.450;7.346;2023-02-03T01:10:32;8.20;99.90
12588;DHT22;6359;51.450;7.346;2023-02-03T01:12:59;8.20;99.90
12588;DHT22;6359;51.450;7.346;2023-02-03T01:15:31;8.20;99.90
12588;DHT22;6359;51.450;7.346;2023-02-03T01:17:58;8.20;99.90
12588;DHT22;6359;51.450;7.346;2023-02-03T01:20:25;8.20;99.90
12588;DHT22;6359;51.450;7.346;2023-02-03T01:22:52;8.30;99.90
12588;DHT22;6359;51.450;7.346;2023-02-03T01:25:19;8.10;99.90
12588;DHT22;6359;51.450;7.346;2023-02-03T01:27:46;8.20;99.90
12588;DHT22;6359;51.450;7.346;2023-02-03T01:30:13;8.20;99.90
12588;DHT22;6359;51.450;7.346;2023-02-03T01:32:42;8.30;99.90
12588;DHT22;6359;51.450;7.346;2023-02-03T01:35:09;8.30;99.90
12588;DHT22;6359;51.450;7.346;2023-02-03T01:37:36;8.30;99.90
12588;DHT22;6359;51.450;7.346;2023-02-03T01:40:03;8.30;99.90
12588;DHT22;6359;51.450;7.346;2023-02-03T01:42:32;8.30;99.90
12588;DHT22;6359;51.450;7.346;2023-02-03T01:44:59;8.30;99.90
12588;DHT22;6359;51.450;7.346;2023-02-03T01:47:30;8.20;99.90
12588;DHT22;6359;51.450;7.346;2023-02-03T01:50:08;8.20;99.90
12588;DHT22;6359;51.450;7.346;2023-02-03T01:52:39;8.30;99.90
12588;DHT22;6359;51.450;7.346;2023-02-03T01:55:10;8.20;99.90
12588;DHT22;6359;51.450;7.346;2023-02-03T01:57:41;8.30;99.90
12588;DHT22;6359;51.450;7.346;2023-02-03T02:00:12;8.20;99.90
12588;DHT22;6359;51.450;7.346;2023-02-03T02:02:39;8.30;99.90
12588;DHT22;6359;51.450;7.346;2023-02-03T02:05:13;8.20;99.90
12588;DHT22;6359;51.450;7.346;2023-02-03T02:07:44;8.20;99.90
12588;DHT22;6359;51.450;7.346;2023-02-03T02:10:16;8.20;99.90
12588;DHT22;6359;51.450;7.346;2023-02-03T02:12:43;8.20;99.90
12588;DHT22;6359;51.450;7.346;2023-02-03T02:15:10;8.30;99.90
12588;DHT22;6359;51.450;7.346;2023-02-03T02:17:52;8.40;99.90
12588;DHT22;6359;51.450;7.346;2023-02-03T02:20:32;8.30;99.90
12588;DHT22;6359;51.450;7.346;2023-02-03T02:26:25;8.30;99.90
12588;DHT22;6359;51.450;7.346;2023-02-03T02:29:16;8.20;99.90
12588;DHT22;6359;51.450;7.346;2023-02-03T02:32:02;8.30;99.90
12588;DHT22;6359;51.450;7.346;2023-02-03T02:34:39;8.30;99.90
12588;DHT22;6359;51.450;7.346;2023-02-03T02:37:17;8.30;99.90
12588;DHT22;6359;51.450;7.346;2023-02-03T02:39:52;8.20;99.90
12588;DHT22;6359;51.450;7.346;2023-02-03T02:42:26;8.30;99.90
12588;DHT22;6359;51.450;7.346;2023-02-03T02:45:00;8.40;99.90
12588;DHT22;6359;51.450;7.346;2023-02-03T02:47:30;8.30;99.90
12588;DHT22;6359;51.450;7.346;2023-02-03T02:50:00;8.30;99.90
12588;DHT22;6359;51.450;7.346;2023-02-03T02:52:31;8.30;99.90
12588;DHT22;6359;51.450;7.346;2023-02-03T02:55:05;8.30;99.90
12588;DHT22;6359;51.450;7.346;2023-02-03T02:57:34;8.30;99.90
12588;DHT22;6359;51.450;7.346;2023-02-03T03:00:02;8.30;99.90
12588;DHT22;6359;51.450;7.346;2023-02-03T03:02:35;8.30;99.90
12588;DHT22;6359;51.450;7.346;2023-02-03T03:05:04;8.30;99.90
12588;DHT22;6359;51.450;7.346;2023-02-03T03:07:35;8.30;99.90
12588;DHT22;6359;51.450;7.346;2023-02-03T03:10:09;8.30;99.90
12588;DHT22;6359;51.450;7.346;2023-02-03T03:12:42;8.30;99.90
12588;DHT22;6359;51.450;7.346;2023-02-03T03:15:14;8.30;99.90
12588;DHT22;6359;51.450;7.346;2023-02-03T03:17:48;8.30;99.90
12588;DHT22;6359;51.450;7.346;2023-02-03T03:20:20;8.30;99.90
12588;DHT22;6359;51.450;7.346;2023-02-03T03:22:55;8.30;99.90
12588;DHT22;6359;51.450;7.346;2023-02-03T03:25:27;8.30;99.90
12588;DHT22;6359;51.450;7.346;2023-02-03T03:27:58;8.30;99.90
12588;DHT22;6359;51.450;7.346;2023-02-03T03:30:32;8.30;99.90
12588;DHT22;6359;51.450;7.346;2023-02-03T03:33:02;8.20;99.90
12588;DHT22;6359;51.450;7.346;2023-02-03T03:35:34;8.30;99.90
12588;DHT22;6359;51.450;7.346;2023-02-03T03:38:07;8.30;99.90
12588;DHT22;6359;51.450;7.346;2023-02-03T03:40:38;8.30;99.90
12588;DHT22;6359;51.450;7.346;2023-02-03T03:43:11;8.30;99.90
12588;DHT22;6359;51.450;7.346;2023-02-03T03:45:43;8.30;99.90
12588;DHT22;6359;51.450;7.346;2023-02-03T03:48:15;8.20;99.90
12588;DHT22;6359;51.450;7.346;2023-02-03T03:50:45;8.40;99.90
12588;DHT22;6359;51.450;7.346;2023-02-03T03:53:15;8.20;99.90
12588;DHT22;6359;51.450;7.346;2023-02-03T03:55:47;8.30;99.90
12588;DHT22;6359;51.450;7.346;2023-02-03T03:58:18;8.20;99.90
12588;DHT22;6359;51.450;7.346;2023-02-03T04:00:46;8.20;99.90
12588;DHT22;6359;51.450;7.346;2023-02-03T04:03:18;8.40;99.90
12588;DHT22;6359;51.450;7.346;2023-02-03T04:05:46;8.20;99.90
12588;DHT22;6359;51.450;7.346;2023-02-03T04:08:13;8.20;99.90
12588;DHT22;6359;51.450;7.346;2023-02-03T04:10:41;8.30;99.90
12588;DHT22;6359;51.450;7.346;2023-02-03T04:13:10;8.50;99.90
12588;DHT22;6359;51.450;7.346;2023-02-03T04:15:38;8.40;99.90
12588;DHT22;6359;51.450;7.346;2023-02-03T04:18:05;8.30;99.90
12588;DHT22;6359;51.450;7.346;2023-02-03T04:20:33;8.30;99.90
12588;DHT22;6359;51.450;7.346;2023-02-03T04:23:00;8.30;99.90
12588;DHT22;6359;51.450;7.346;2023-02-03T04:25:27;8.30;99.90
12588;DHT22;6359;51.450;7.346;2023-02-03T04:27:54;8.30;99.90
12588;DHT22;6359;51.450;7.346;2023-02-03T04:30:22;8.30;99.90
12588;DHT22;6359;51.450;7.346;2023-02-03T04:32:49;8.30;99.90
12588;DHT22;6359;51.450;7.346;2023-02-03T04:35:16;8.40;99.90
12588;DHT22;6359;51.450;7.346;2023-02-03T04:37:44;8.40;99.90
12588;DHT22;6359;51.450;7.346;2023-02-03T04:40:12;8.40;99.90
12588;DHT22;6359;51.450;7.346;2023-02-03T04:42:39;8.40;99.90
12588;DHT22;6359;51.450;7.346;2023-02-03T04:45:08;8.40;99.90
12588;DHT22;6359;51.450;7.346;2023-02-03T04:47:37;8.40;99.90
12588;DHT22;6359;51.450;7.346;2023-02-03T04:50:04;8.30;99.90
12588;DHT22;6359;51.450;7.346;2023-02-03T04:52:32;8.30;99.90
12588;DHT22;6359;51.450;7.346;2023-02-03T04:55:00;8.40;99.90
12588;DHT22;6359;51.450;7.346;2023-02-03T04:57:28;8.40;99.90
12588;DHT22;6359;51.450;7.346;2023-02-03T04:59:55;8.40;99.90
12588;DHT22;6359;51.450;7.346;2023-02-03T05:02:22;8.40;99.90
12588;DHT22;6359;51.450;7.346;2023-02-03T05:04:49;8.40;99.90
12588;DHT22;6359;51.450;7.346;2023-02-03T05:07:16;8.40;99.90
12588;DHT22;6359;51.450;7.346;2023-02-03T05:09:43;8.40;99.90
12588;DHT22;6359;51.450;7.346;2023-02-03T05:12:12;8.40;99.90
12588;DHT22;6359;51.450;7.346;2023-02-03T05:14:39;8.40;99.90
12588;DHT22;6359;51.450;7.346;2023-02-03T05:17:06;8.50;99.90
12588;DHT22;6359;51.450;7.346;2023-02-03T05:19:33;8.50;99.90
12588;DHT22;6359;51.450;7.346;2023-02-03T05:22:00;8.40;99.90
12588;DHT22;6359;51.450;7.346;2023-02-03T05:24:27;8.40;99.90
12588;DHT22;6359;51.450;7.346;2023-02-03T05:26:54;8.40;99.90
12588;DHT22;6359;51.450;7.346;2023-02-03T05:29:22;8.50;99.90
12588;DHT22;6359;51.450;7.346;2023-02-03T05:31:49;8.40;99.90
12588;DHT22;6359;51.450;7.346;2023-02-03T05:34:16;8.30;99.90
12588;DHT22;6359;51.450;7.346;2023-02-03T05:36:43;8.50;99.90
12588;DHT22;6359;51.450;7.346;2023-02-03T05:39:10;8.50;99.90
12588;DHT22;6359;51.450;7.346;2023-02-03T05:41:37;8.50;99.90
12588;DHT22;6359;51.450;7.346;2023-02-03T05:44:19;8.50;99.90
12588;DHT22;6359;51.450;7.346;2023-02-03T05:46:48;8.50;99.90
12588;DHT22;6359;51.450;7.346;2023-02-03T05:49:15;8.40;99.90
12588;DHT22;6359;51.450;7.346;2023-02-03T05:51:42;8.50;99.90
12588;DHT22;6359;51.450;7.346;2023-02-03T05:54:09;8.40;99.90
12588;DHT22;6359;51.450;7.346;2023-02-03T05:56:36;8.60;99.90
12588;DHT22;6359;51.450;7.346;2023-02-03T05:59:04;8.40;99.90
12588;DHT22;6359;51.450;7.346;2023-02-03T06:01:32;8.40;99.90
12588;DHT22;6359;51.450;7.346;2023-02-03T06:04:01;8.40;99.90
12588;DHT22;6359;51.450;7.346;2023-02-03T06:06:29;8.40;99.90
12588;DHT22;6359;51.450;7.346;2023-02-03T06:08:59;8.40;99.90
12588;DHT22;6359;51.450;7.346;2023-02-03T06:11:26;8.40;99.90
12588;DHT22;6359;51.450;7.346;2023-02-03T06:13:54;8.40;99.90
12588;DHT22;6359;51.450;7.346;2023-02-03T06:16:23;8.40;99.90
12588;DHT22;6359;51.450;7.346;2023-02-03T06:18:50;8.50;99.90
12588;DHT22;6359;51.450;7.346;2023-02-03T06:21:20;8.50;99.90
12588;DHT22;6359;51.450;7.346;2023-02-03T06:23:47;8.40;99.90
12588;DHT22;6359;51.450;7.346;2023-02-03T06:26:14;8.60;99.90
12588;DHT22;6359;51.450;7.346;2023-02-03T06:28:41;8.40;99.90
12588;DHT22;6359;51.450;7.346;2023-02-03T06:31:08;8.40;99.90
12588;DHT22;6359;51.450;7.346;2023-02-03T06:33:35;8.50;99.90
12588;DHT22;6359;51.450;7.346;2023-02-03T06:36:02;8.50;99.90
12588;DHT22;6359;51.450;7.346;2023-02-03T06:38:31;8.50;99.90
12588;DHT22;6359;51.450;7.346;2023-02-03T06:40:58;8.40;99.90
12588;DHT22;6359;51.450;7.346;2023-02-03T06:43:25;8.60;99.90
12588;DHT22;6359;51.450;7.346;2023-02-03T06:45:52;8.50;99.90
12588;DHT22;6359;51.450;7.346;2023-02-03T06:48:19;8.50;99.90
12588;DHT22;6359;51.450;7.346;2023-02-03T06:50:46;8.60;99.90
12588;DHT22;6359;51.450;7.346;2023-02-03T06:53:13;8.60;99.90
12588;DHT22;6359;51.450;7.346;2023-02-03T06:55:41;8.50;99.90
12588;DHT22;6359;51.450;7.346;2023-02-03T06:58:08;8.50;99.90
12588;DHT22;6359;51.450;7.346;2023-02-03T07:00:35;8.50;99.90
12588;DHT22;6359;51.450;7.346;2023-02-03T07:03:03;8.50;99.90
12588;DHT22;6359;51.450;7.346;2023-02-03T07:05:30;8.50;99.90
12588;DHT22;6359;51.450;7.346;2023-02-03T07:07:57;8.50;99.90
12588;DHT22;6359;51.450;7.346;2023-02-03T07:10:24;8.40;99.90
12588;DHT22;6359;51.450;7.346;2023-02-03T07:12:53;8.40;99.90
12588;DHT22;6359;51.450;7.346;2023-02-03T07:15:20;8.30;99.90
12588;DHT22;6359;51.450;7.346;2023-02-03T07:17:47;8.10;99.90
12588;DHT22;6359;51.450;7.346;2023-02-03T07:20:20;8.00;99.90
12588;DHT22;6359;51.450;7.346;2023-02-03T07:22:51;7.90;99.90
12588;DHT22;6359;51.450;7.346;2023-02-03T07:25:18;7.80;99.90
12588;DHT22;6359;51.450;7.346;2023-02-03T07:27:45;7.70;99.90
12588;DHT22;6359;51.450;7.346;2023-02-03T07:30:14;7.80;99.90
12588;DHT22;6359;51.450;7.346;2023-02-03T07:32:45;7.80;99.90
12588;DHT22;6359;51.450;7.346;2023-02-03T07:35:13;7.90;99.90
12588;DHT22;6359;51.450;7.346;2023-02-03T07:37:40;8.00;99.90
12588;DHT22;6359;51.450;7.346;2023-02-03T07:40:08;8.10;99.90
12588;DHT22;6359;51.450;7.346;2023-02-03T07:42:37;8.20;99.90
12588;DHT22;6359;51.450;7.346;2023-02-03T07:45:07;8.10;99.90
12588;DHT22;6359;51.450;7.346;2023-02-03T07:47:36;8.30;99.90
12588;DHT22;6359;51.450;7.346;2023-02-03T07:50:03;8.30;99.90
12588;DHT22;6359;51.450;7.346;2023-02-03T07:52:30;8.30;99.90
12588;DHT22;6359;51.450;7.346;2023-02-03T07:54:57;8.40;99.90
12588;DHT22;6359;51.450;7.346;2023-02-03T07:57:24;8.50;99.90
12588;DHT22;6359;51.450;7.346;2023-02-03T07:59:51;8.50;99.90
12588;DHT22;6359;51.450;7.346;2023-02-03T08:02:18;8.50;99.90
12588;DHT22;6359;51.450;7.346;2023-02-03T08:04:46;8.60;99.90
12588;DHT22;6359;51.450;7.346;2023-02-03T08:07:13;8.60;99.90
12588;DHT22;6359;51.450;7.346;2023-02-03T08:09:40;8.60;99.90
12588;DHT22;6359;51.450;7.346;2023-02-03T08:12:07;8.60;99.90
12588;DHT22;6359;51.450;7.346;2023-02-03T08:14:34;8.60;99.90
12588;DHT22;6359;51.450;7.346;2023-02-03T08:17:01;8.60;99.90
12588;DHT22;6359;51.450;7.346;2023-02-03T08:19:28;8.60;99.90
12588;DHT22;6359;51.450;7.346;2023-02-03T08:21:56;8.80;99.90
12588;DHT22;6359;51.450;7.346;2023-02-03T08:24:24;8.60;99.90
12588;DHT22;6359;51.450;7.346;2023-02-03T08:26:51;8.60;99.90
12588;DHT22;6359;51.450;7.346;2023-02-03T08:29:19;8.60;99.90
12588;DHT22;6359;51.450;7.346;2023-02-03T08:31:46;8.70;99.90
12588;DHT22;6359;51.450;7.346;2023-02-03T08:34:13;8.70;99.90
12588;DHT22;6359;51.450;7.346;2023-02-03T08:36:40;8.70;99.90
12588;DHT22;6359;51.450;7.346;2023-02-03T08:39:10;8.70;99.90
12588;DHT22;6359;51.450;7.346;2023-02-03T08:41:37;8.60;99.90
12588;DHT22;6359;51.450;7.346;2023-02-03T08:44:04;8.70;99.90
12588;DHT22;6359;51.450;7.346;2023-02-03T08:46:31;8.80;99.90
12588;DHT22;6359;51.450;7.346;2023-02-03T08:49:00;8.70;99.90
12588;DHT22;6359;51.450;7.346;2023-02-03T08:51:27;8.70;99.90
12588;DHT22;6359;51.450;7.346;2023-02-03T08:53:54;8.70;99.90
12588;DHT22;6359;51.450;7.346;2023-02-03T08:56:23;8.70;99.90
12588;DHT22;6359;51.450;7.346;2023-02-03T08:58:51;8.60;99.90
12588;DHT22;6359;51.450;7.346;2023-02-03T09:01:18;8.60;99.90
12588;DHT22;6359;51.450;7.346;2023-02-03T09:03:45;8.60;99.90
12588;DHT22;6359;51.450;7.346;2023-02-03T09:06:12;8.60;99.90
12588;DHT22;6359;51.450;7.346;2023-02-03T09:08:41;8.60;99.90
12588;DHT22;6359;51.450;7.346;2023-02-03T09:11:08;8.60;99.90
12588;DHT22;6359;51.450;7.346;2023-02-03T09:13:38;8.60;99.90
12588;DHT22;6359;51.450;7.346;2023-02-03T09:16:06;8.70;99.90
12588;DHT22;6359;51.450;7.346;2023-02-03T09:18:33;8.70;99.90
12588;DHT22;6359;51.450;7.346;2023-02-03T09:21:01;8.70;99.90
12588;DHT22;6359;51.450;7.346;2023-02-03T09:23:28;8.70;99.90
12588;DHT22;6359;51.450;7.346;2023-02-03T09:25:55;8.90;99.90
12588;DHT22;6359;51.450;7.346;2023-02-03T09:28:27;8.80;99.90
12588;DHT22;6359;51.450;7.346;2023-02-03T09:30:58;8.90;99.90
12588;DHT22;6359;51.450;7.346;2023-02-03T09:33:25;8.70;99.90
12588;DHT22;6359;51.450;7.346;2023-02-03T09:35:53;8.70;99.90
12588;DHT22;6359;51.450;7.346;2023-02-03T09:38:20;8.70;99.90
12588;DHT22;6359;51.450;7.346;2023-02-03T09:40:50;8.70;99.90
12588;DHT22;6359;51.450;7.346;2023-02-03T09:43:30;8.70;99.90
12588;DHT22;6359;51.450;7.346;2023-02-03T09:46:02;8.70;99.90
12588;DHT22;6359;51.450;7.346;2023-02-03T09:48:35;8.80;99.90
12588;DHT22;6359;51.450;7.346;2023-02-03T09:51:05;8.80;99.90
12588;DHT22;6359;51.450;7.346;2023-02-03T09:53:36;8.80;99.90
12588;DHT22;6359;51.450;7.346;2023-02-03T09:56:05;8.90;99.90
12588;DHT22;6359;51.450;7.346;2023-02-03T09:58:35;8.80;99.90
12588;DHT22;6359;51.450;7.346;2023-02-03T10:01:07;8.80;99.90
12588;DHT22;6359;51.450;7.346;2023-02-03T10:03:42;8.70;99.90
12588;DHT22;6359;51.450;7.346;2023-02-03T10:06:17;8.80;99.90
12588;DHT22;6359;51.450;7.346;2023-02-03T10:09:03;8.80;99.90
12588;DHT22;6359;51.450;7.346;2023-02-03T10:11:45;8.80;99.90
12588;DHT22;6359;51.450;7.346;2023-02-03T10:14:26;8.90;99.90
12588;DHT22;6359;51.450;7.346;2023-02-03T10:17:07;8.90;99.90
12588;DHT22;6359;51.450;7.346;2023-02-03T10:19:42;8.90;99.90
12588;DHT22;6359;51.450;7.346;2023-02-03T10:22:16;8.90;99.90
12588;DHT22;6359;51.450;7.346;2023-02-03T10:24:49;8.90;99.90
12588;DHT22;6359;51.450;7.346;2023-02-03T10:27:20;8.90;99.90
12588;DHT22;6359;51.450;7.346;2023-02-03T10:29:52;8.70;99.90
12588;DHT22;6359;51.450;7.346;2023-02-03T10:32:25;8.90;99.90
12588;DHT22;6359;51.450;7.346;2023-02-03T10:34:53;8.90;99.90
12588;DHT22;6359;51.450;7.346;2023-02-03T10:37:25;8.90;99.90
12588;DHT22;6359;51.450;7.346;2023-02-03T10:39:54;8.90;99.90
12588;DHT22;6359;51.450;7.346;2023-02-03T10:42:23;8.80;99.90
12588;DHT22;6359;51.450;7.346;2023-02-03T10:44:54;8.90;99.90
12588;DHT22;6359;51.450;7.346;2023-02-03T10:47:31;8.90;99.90
12588;DHT22;6359;51.450;7.346;2023-02-03T10:50:03;8.80;99.90
12588;DHT22;6359;51.450;7.346;2023-02-03T10:52:33;8.90;99.90
12588;DHT22;6359;51.450;7.346;2023-02-03T10:55:04;8.90;99.90
12588;DHT22;6359;51.450;7.346;2023-02-03T10:57:34;8.90;99.90
12588;DHT22;6359;51.450;7.346;2023-02-03T11:00:07;8.90;99.90
12588;DHT22;6359;51.450;7.346;2023-02-03T11:02:54;8.90;99.90
12588;DHT22;6359;51.450;7.346;2023-02-03T11:05:22;9.00;99.90
12588;DHT22;6359;51.450;7.346;2023-02-03T11:07:51;9.00;99.90
12588;DHT22;6359;51.450;7.346;2023-02-03T11:10:34;9.00;99.90
12588;DHT22;6359;51.450;7.346;2023-02-03T11:13:19;9.10;99.90
12588;DHT22;6359;51.450;7.346;2023-02-03T11:15:55;9.20;99.90
12588;DHT22;6359;51.450;7.346;2023-02-03T11:18:37;9.00;99.90
12588;DHT22;6359;51.450;7.346;2023-02-03T11:21:09;9.20;99.90
12588;DHT22;6359;51.450;7.346;2023-02-03T11:23:45;9.20;99.90
12588;DHT22;6359;51.450;7.346;2023-02-03T11:26:15;9.20;99.90
12588;DHT22;6359;51.450;7.346;2023-02-03T11:28:46;9.30;99.90
12588;DHT22;6359;51.450;7.346;2023-02-03T11:31:18;9.30;99.90
12588;DHT22;6359;51.450;7.346;2023-02-03T11:33:51;9.40;99.90
12588;DHT22;6359;51.450;7.346;2023-02-03T11:36:19;9.20;99.90
12588;DHT22;6359;51.450;7.346;2023-02-03T11:38:47;9.30;99.90
12588;DHT22;6359;51.450;7.346;2023-02-03T11:41:16;9.30;99.90
12588;DHT22;6359;51.450;7.346;2023-02-03T11:43:44;9.40;99.90
12588;DHT22;6359;51.450;7.346;2023-02-03T11:46:11;9.40;99.90
12588;DHT22;6359;51.450;7.346;2023-02-03T11:48:52;9.50;99.90
12588;DHT22;6359;51.450;7.346;2023-02-03T11:51:31;9.50;99.90
12588;DHT22;6359;51.450;7.346;2023-02-03T11:54:11;9.50;99.90
12588;DHT22;6359;51.450;7.346;2023-02-03T11:56:56;9.50;99.90
12588;DHT22;6359;51.450;7.346;2023-02-03T11:59:47;9.60;99.90
12588;DHT22;6359;51.450;7.346;2023-02-03T12:05:56;9.70;99.90
12588;DHT22;6359;51.450;7.346;2023-02-03T12:08:34;9.80;99.90
12588;DHT22;6359;51.450;7.346;2023-02-03T12:11:09;9.60;99.90
12588;DHT22;6359;51.450;7.346;2023-02-03T12:16:54;9.70;99.90
12588;DHT22;6359;51.450;7.346;2023-02-03T12:19:30;9.60;99.90
12588;DHT22;6359;51.450;7.346;2023-02-03T12:22:09;9.60;99.90
12588;DHT22;6359;51.450;7.346;2023-02-03T12:24:46;9.60;99.90
12588;DHT22;6359;51.450;7.346;2023-02-03T12:27:28;9.60;99.90
12588;DHT22;6359;51.450;7.346;2023-02-03T12:30:03;9.60;99.90
12588;DHT22;6359;51.450;7.346;2023-02-03T12:32:35;9.70;99.90
12588;DHT22;6359;51.450;7.346;2023-02-03T12:35:12;9.70;99.90
12588;DHT22;6359;51.450;7.346;2023-02-03T12:37:47;9.70;99.90
12588;DHT22;6359;51.450;7.346;2023-02-03T12:40:19;9.70;99.90
12588;DHT22;6359;51.450;7.346;2023-02-03T12:42:53;9.60;99.90
12588;DHT22;6359;51.450;7.346;2023-02-03T12:45:24;9.50;99.90
12588;DHT22;6359;51.450;7.346;2023-02-03T12:47:57;9.50;99.90
12588;DHT22;6359;51.450;7.346;2023-02-03T12:50:29;9.50;99.90
12588;DHT22;6359;51.450;7.346;2023-02-03T12:53:02;9.40;99.90
12588;DHT22;6359;51.450;7.346;2023-02-03T12:55:35;9.40;99.90
12588;DHT22;6359;51.450;7.346;2023-02-03T12:58:05;9.30;99.90
12588;DHT22;6359;51.450;7.346;2023-02-03T13:00:42;9.40;99.90
12588;DHT22;6359;51.450;7.346;2023-02-03T13:03:15;9.50;99.90
12588;DHT22;6359;51.450;7.346;2023-02-03T13:05:48;9.50;99.90
12588;DHT22;6359;51.450;7.346;2023-02-03T13:08:24;9.60;99.90
12588;DHT22;6359;51.450;7.346;2023-02-03T13:10:55;9.70;99.90
12588;DHT22;6359;51.450;7.346;2023-02-03T13:13:28;9.80;99.90
12588;DHT22;6359;51.450;7.346;2023-02-03T13:15:59;9.80;99.90
12588;DHT22;6359;51.450;7.346;2023-02-03T13:18:31;10.00;99.90
12588;DHT22;6359;51.450;7.346;2023-02-03T13:20:59;9.80;99.90
12588;DHT22;6359;51.450;7.346;2023-02-03T13:23:28;9.80;99.90
12588;DHT22;6359;51.450;7.346;2023-02-03T13:26:17;9.90;99.90
12588;DHT22;6359;51.450;7.346;2023-02-03T13:29:21;9.90;99.90
12588;DHT22;6359;51.450;7.346;2023-02-03T13:32:01;9.90;99.90
12588;DHT22;6359;51.450;7.346;2023-02-03T13:34:50;9.90;99.90
12588;DHT22;6359;51.450;7.346;2023-02-03T13:37:33;9.90;99.90
12588;DHT22;6359;51.450;7.346;2023-02-03T13:40:11;9.90;99.90
12588;DHT22;6359;51.450;7.346;2023-02-03T13:42:43;9.90;99.90
12588;DHT22;6359;51.450;7.346;2023-02-03T13:45:17;9.90;99.90
12588;DHT22;6359;51.450;7.346;2023-02-03T13:47:49;9.80;99.90
12588;DHT22;6359;51.450;7.346;2023-02-03T13:50:21;10.00;99.90
12588;DHT22;6359;51.450;7.346;2023-02-03T13:52:54;10.00;99.90
12588;DHT22;6359;51.450;7.346;2023-02-03T13:55:29;9.80;99.90
12588;DHT22;6359;51.450;7.346;2023-02-03T13:57:56;9.80;99.90
12588;DHT22;6359;51.450;7.346;2023-02-03T14:03:44;9.50;99.90
12588;DHT22;6359;51.450;7.346;2023-02-03T14:12:58;9.20;99.90
12588;DHT22;6359;51.450;7.346;2023-02-03T14:15:30;8.90;99.90
12588;DHT22;6359;51.450;7.346;2023-02-03T14:18:03;8.80;99.90
12588;DHT22;6359;51.450;7.346;2023-02-03T14:20:45;8.60;99.90
12588;DHT22;6359;51.450;7.346;2023-02-03T14:23:20;8.50;99.90
12588;DHT22;6359;51.450;7.346;2023-02-03T14:25:51;8.50;99.90
12588;DHT22;6359;51.450;7.346;2023-02-03T14:28:24;8.40;99.90
12588;DHT22;6359;51.450;7.346;2023-02-03T14:31:12;8.30;99.90
12588;DHT22;6359;51.450;7.346;2023-02-03T14:34:06;8.20;99.90
12588;DHT22;6359;51.450;7.346;2023-02-03T14:36:46;8.10;99.90
12588;DHT22;6359;51.450;7.346;2023-02-03T14:45:29;7.80;99.90
12588;DHT22;6359;51.450;7.346;2023-02-03T14:48:08;7.80;99.90
12588;DHT22;6359;51.450;7.346;2023-02-03T14:50:49;7.80;99.90
12588;DHT22;6359;51.450;7.346;2023-02-03T14:53:39;7.80;99.90
12588;DHT22;6359;51.450;7.346;2023-02-03T14:56:19;7.80;99.90
12588;DHT22;6359;51.450;7.346;2023-02-03T14:58:52;7.90;99.90
12588;DHT22;6359;51.450;7.346;2023-02-03T15:04:21;8.00;99.90
12588;DHT22;6359;51.450;7.346;2023-02-03T15:06:51;8.00;99.90
12588;DHT22;6359;51.450;7.346;2023-02-03T15:09:24;7.90;99.90
12588;DHT22;6359;51.450;7.346;2023-02-03T15:11:53;8.10;99.90
12588;DHT22;6359;51.450;7.346;2023-02-03T15:14:22;8.20;99.90
12588;DHT22;6359;51.450;7.346;2023-02-03T15:16:53;8.10;99.90
12588;DHT22;6359;51.450;7.346;2023-02-03T15:19:23;8.20;99.90
12588;DHT22;6359;51.450;7.346;2023-02-03T15:21:51;8.30;99.90
12588;DHT22;6359;51.450;7.346;2023-02-03T15:24:20;8.30;99.90
12588;DHT22;6359;51.450;7.346;2023-02-03T15:26:50;8.20;99.90
12588;DHT22;6359;51.450;7.346;2023-02-03T15:29:26;8.30;99.90
12588;DHT22;6359;51.450;7.346;2023-02-03T15:32:03;8.30;99.90
12588;DHT22;6359;51.450;7.346;2023-02-03T15:34:34;8.30;99.90
12588;DHT22;6359;51.450;7.346;2023-02-03T15:37:07;8.40;99.90
12588;DHT22;6359;51.450;7.346;2023-02-03T15:39:43;8.40;99.90
12588;DHT22;6359;51.450;7.346;2023-02-03T15:42:19;8.40;99.90
12588;DHT22;6359;51.450;7.346;2023-02-03T15:44:52;8.40;99.90
12588;DHT22;6359;51.450;7.346;2023-02-03T15:47:28;8.40;99.90
12588;DHT22;6359;51.450;7.346;2023-02-03T15:50:07;8.50;99.90
12588;DHT22;6359;51.450;7.346;2023-02-03T15:52:41;8.40;99.90
12588;DHT22;6359;51.450;7.346;2023-02-03T15:55:18;8.40;99.90
12588;DHT22;6359;51.450;7.346;2023-02-03T15:57:48;8.40;99.90
12588;DHT22;6359;51.450;7.346;2023-02-03T16:00:31;8.30;99.90
12588;DHT22;6359;51.450;7.346;2023-02-03T16:03:02;8.40;99.90
12588;DHT22;6359;51.450;7.346;2023-02-03T16:05:31;8.30;99.90
12588;DHT22;6359;51.450;7.346;2023-02-03T16:08:26;8.40;99.90
12588;DHT22;6359;51.450;7.346;2023-02-03T16:10:54;8.40;99.90
12588;DHT22;6359;51.450;7.346;2023-02-03T16:13:23;8.30;99.90
12588;DHT22;6359;51.450;7.346;2023-02-03T16:16:02;8.30;99.90
12588;DHT22;6359;51.450;7.346;2023-02-03T16:18:33;8.30;99.90
12588;DHT22;6359;51.450;7.346;2023-02-03T16:21:02;8.30;99.90
12588;DHT22;6359;51.450;7.346;2023-02-03T16:23:30;8.30;99.90
12588;DHT22;6359;51.450;7.346;2023-02-03T16:26:02;8.30;99.90
12588;DHT22;6359;51.450;7.346;2023-02-03T16:28:29;8.30;99.90
12588;DHT22;6359;51.450;7.346;2023-02-03T16:31:15;8.40;99.90
12588;DHT22;6359;51.450;7.346;2023-02-03T16:34:07;8.30;99.90
12588;DHT22;6359;51.450;7.346;2023-02-03T16:36:53;8.10;99.90
12588;DHT22;6359;51.450;7.346;2023-02-03T16:39:37;8.30;99.90
12588;DHT22;6359;51.450;7.346;2023-02-03T16:42:22;8.30;99.90
12588;DHT22;6359;51.450;7.346;2023-02-03T16:45:12;8.30;99.90
12588;DHT22;6359;51.450;7.346;2023-02-03T16:47:57;8.30;99.90
12588;DHT22;6359;51.450;7.346;2023-02-03T16:50:43;8.30;99.90
12588;DHT22;6359;51.450;7.346;2023-02-03T16:53:18;8.30;99.90
12588;DHT22;6359;51.450;7.346;2023-02-03T16:55:45;8.30;99.90
12588;DHT22;6359;51.450;7.346;2023-02-03T16:58:12;8.30;99.90